Time;durP1;ratioP1;P1;durP2;ratioP2;P2;SDS_P1;SDS_P2;PMS_P1;PMS_P2;Temp;Humidity;BMP_temperature;BMP_pressure;BME280_temperature;BME280_humidity;BME280_pressure;Samples;Min_cycle;Max_cycle;Signal;HPM_P1;HPM_P2
2021/07/31 00:01:51;;;;;;;9.00;6.20;;;;;;;15.86;75.14;99688.95;92915;1211;82808;-64
2021/07/31 00:03:59;;;;;;;8.60;5.90;;;;;;;15.84;75.25;99677.47;92905;1211;67726;-64
2021/07/31 00:06:08;;;;;;;8.60;5.60;;;;;;;15.84;75.36;99680.20;92941;1211;68478;-59
2021/07/31 00:08:15;;;;;;;7.70;5.90;;;;;;;15.84;75.24;99691.92;92946;1211;86491;-59
2021/07/31 00:10:23;;;;;;;9.80;5.40;;;;;;;15.80;75.16;99679.02;92947;1211;73872;-66
2021/07/31 00:12:31;;;;;;;7.50;5.70;;;;;;;15.73;75.27;99679.16;92939;1205;80514;-66
2021/07/31 00:14:39;;;;;;;7.30;6.10;;;;;;;15.72;75.55;99671.22;92920;1211;67226;-63
2021/07/31 00:16:46;;;;;;;7.60;5.40;;;;;;;15.68;75.26;99668.17;92925;1209;68352;-65
2021/07/31 00:18:54;;;;;;;8.10;5.60;;;;;;;15.65;75.21;99674.09;92895;1211;87012;-63
2021/07/31 00:21:02;;;;;;;7.60;5.40;;;;;;;15.63;75.35;99681.65;92950;1209;75491;-66
2021/07/31 00:23:10;;;;;;;9.70;6.00;;;;;;;15.62;75.41;99660.12;92924;1211;79994;-65
2021/07/31 00:25:21;;;;;;;9.80;6.10;;;;;;;15.59;75.45;99674.20;92889;1211;66000;-60
2021/07/31 00:27:29;;;;;;;10.00;6.10;;;;;;;15.54;75.38;99666.77;92927;1211;69332;-61
2021/07/31 00:29:44;;;;;;;8.80;5.60;;;;;;;15.49;75.55;99672.11;92929;1211;86989;-59
2021/07/31 00:31:54;;;;;;;8.20;6.00;;;;;;;15.47;75.64;99667.94;92922;1211;73965;-65
2021/07/31 00:34:02;;;;;;;9.00;5.90;;;;;;;15.46;75.72;99674.44;92940;1211;81284;-63
2021/07/31 00:36:09;;;;;;;9.60;5.80;;;;;;;15.40;75.74;99681.66;92944;1217;67122;-59
2021/07/31 00:38:17;;;;;;;8.60;5.70;;;;;;;15.34;75.87;99683.44;92949;1211;69646;-59
2021/07/31 00:40:25;;;;;;;9.10;5.70;;;;;;;15.29;75.95;99677.89;92925;1210;86582;-62
2021/07/31 00:42:33;;;;;;;8.60;5.30;;;;;;;15.27;75.87;99687.36;92896;1211;75675;-62
2021/07/31 00:44:41;;;;;;;7.90;5.70;;;;;;;15.25;75.98;99684.86;92908;1211;81487;-59
2021/07/31 00:46:49;;;;;;;7.80;5.70;;;;;;;15.27;76.19;99679.19;92890;1211;67173;-62
2021/07/31 00:49:00;;;;;;;9.40;6.00;;;;;;;15.29;76.27;99682.50;92937;1217;70062;-63
2021/07/31 00:51:08;;;;;;;7.30;5.60;;;;;;;15.26;76.35;99678.36;92914;1211;86512;-62
2021/07/31 00:53:16;;;;;;;9.50;5.80;;;;;;;15.28;76.08;99681.66;92916;1211;74354;-63
2021/07/31 00:55:25;;;;;;;7.70;5.60;;;;;;;15.30;76.15;99676.80;92908;1211;81157;-59
2021/07/31 00:57:35;;;;;;;7.40;5.90;;;;;;;15.33;76.22;99683.66;92954;1211;68448;-59
2021/07/31 00:59:42;;;;;;;11.70;5.80;;;;;;;15.32;76.36;99682.03;92963;1211;67663;-61
2021/07/31 01:01:50;;;;;;;9.90;6.60;;;;;;;15.30;76.32;99670.52;92922;1211;86739;-57
2021/07/31 01:03:58;;;;;;;8.30;6.40;;;;;;;15.23;76.22;99675.27;92960;1211;74409;-57
2021/07/31 01:06:05;;;;;;;8.80;6.30;;;;;;;15.17;76.16;99678.94;92926;1211;80738;-60
2021/07/31 01:08:13;;;;;;;7.20;5.60;;;;;;;15.16;76.24;99674.58;92917;1211;68535;-58
2021/07/31 01:10:21;;;;;;;11.20;5.20;;;;;;;15.15;76.43;99675.63;92923;1218;68633;-59
2021/07/31 01:12:33;;;;;;;8.50;5.70;;;;;;;15.16;76.56;99677.30;92903;1207;86533;-63
2021/07/31 01:14:44;;;;;;;8.70;5.90;;;;;;;15.09;76.80;99671.13;92952;1218;74431;-59
2021/07/31 01:16:51;;;;;;;9.00;6.70;;;;;;;15.05;76.62;99667.24;92922;1211;80613;-62
2021/07/31 01:18:59;;;;;;;10.20;5.60;;;;;;;15.03;76.60;99670.18;92916;1211;68182;-62
2021/07/31 01:21:07;;;;;;;6.80;5.60;;;;;;;15.03;76.58;99667.46;92934;1211;68183;-64
2021/07/31 01:23:15;;;;;;;10.00;6.00;;;;;;;15.04;76.70;99662.85;92922;1211;86750;-62
2021/07/31 01:25:22;;;;;;;9.00;5.50;;;;;;;15.04;76.78;99660.97;92939;1211;75989;-59
2021/07/31 01:27:30;;;;;;;8.90;6.00;;;;;;;15.03;76.69;99666.63;92944;1211;82038;-62
2021/07/31 01:29:38;;;;;;;8.70;5.80;;;;;;;15.01;76.57;99661.44;92928;1216;66377;-57
2021/07/31 01:31:47;;;;;;;7.50;5.70;;;;;;;14.99;76.59;99668.17;92937;1211;68837;-60
2021/07/31 01:33:55;;;;;;;8.40;5.50;;;;;;;14.97;76.62;99662.95;92913;1211;86916;-59
2021/07/31 01:36:06;;;;;;;7.30;5.30;;;;;;;14.96;76.66;99665.92;92952;1211;75475;-58
2021/07/31 01:38:13;;;;;;;7.20;5.40;;;;;;;14.98;76.98;99663.80;92937;1211;81058;-59
2021/07/31 01:40:21;;;;;;;12.10;6.20;;;;;;;14.99;76.82;99665.45;92922;1216;66519;-63
2021/07/31 01:42:32;;;;;;;8.10;6.20;;;;;;;14.96;76.89;99672.20;92970;1218;69522;-62
2021/07/31 01:44:46;;;;;;;10.00;6.20;;;;;;;14.94;76.79;99677.05;92940;1211;86921;-63
2021/07/31 01:46:53;;;;;;;6.30;5.70;;;;;;;14.92;76.69;99675.61;92902;1211;74538;-58
2021/07/31 01:49:01;;;;;;;6.70;5.50;;;;;;;14.92;76.91;99675.61;92942;1211;80323;-58
2021/07/31 01:51:08;;;;;;;10.50;7.20;;;;;;;14.94;76.88;99668.06;92935;1211;66392;-63
2021/07/31 01:53:16;;;;;;;7.20;6.20;;;;;;;14.95;76.90;99672.42;92942;1216;68090;-62
2021/07/31 01:55:26;;;;;;;7.70;5.90;;;;;;;14.92;77.09;99665.56;92897;1211;87570;-61
2021/07/31 01:57:34;;;;;;;8.80;6.10;;;;;;;14.92;76.98;99667.45;92935;1211;74584;-62
2021/07/31 01:59:41;;;;;;;6.80;5.70;;;;;;;14.88;77.15;99658.12;92945;1205;80482;-59
2021/07/31 02:01:49;;;;;;;7.90;5.70;;;;;;;14.87;77.13;99660.00;92900;1212;68210;-59
2021/07/31 02:03:59;;;;;;;10.90;5.80;;;;;;;14.85;77.15;99662.14;92939;1218;67784;-59
2021/07/31 02:06:07;;;;;;;8.30;6.00;;;;;;;14.80;77.23;99647.59;92956;1211;85929;-62
2021/07/31 02:08:14;;;;;;;8.80;5.90;;;;;;;14.77;77.27;99654.33;92956;1217;74529;-64
2021/07/31 02:10:22;;;;;;;9.10;5.90;;;;;;;14.75;77.30;99661.86;92929;1211;81478;-58
2021/07/31 02:12:30;;;;;;;10.10;6.50;;;;;;;14.71;77.49;99661.53;92940;1204;67653;-58
2021/07/31 02:14:38;;;;;;;8.90;6.00;;;;;;;14.71;77.39;99669.69;92939;1210;68244;-60
2021/07/31 02:16:45;;;;;;;7.20;5.60;;;;;;;14.73;77.51;99672.99;92962;1218;86368;-58
2021/07/31 02:18:53;;;;;;;9.10;6.40;;;;;;;14.72;77.47;99675.95;92933;1211;74075;-59
2021/07/31 02:21:04;;;;;;;6.70;5.70;;;;;;;14.69;77.32;99673.70;92916;1216;80834;-64
2021/07/31 02:23:14;;;;;;;8.80;7.10;;;;;;;14.65;77.40;99662.45;92919;1218;68511;-63
2021/07/31 02:25:22;;;;;;;9.50;5.90;;;;;;;14.64;77.53;99668.95;92957;1204;67692;-58
2021/07/31 02:27:30;;;;;;;9.70;5.60;;;;;;;14.61;77.43;99668.61;92918;1218;85785;-59
2021/07/31 02:29:40;;;;;;;8.80;6.10;;;;;;;14.62;77.60;99671.08;92927;1216;73836;-58
2021/07/31 02:31:48;;;;;;;9.10;6.00;;;;;;;14.63;77.58;99664.59;92898;1211;82415;-62
2021/07/31 02:33:55;;;;;;;8.20;6.00;;;;;;;14.63;77.73;99659.16;92930;1211;66346;-63
2021/07/31 02:36:06;;;;;;;9.20;6.10;;;;;;;14.56;77.81;99669.28;92946;1217;68855;-63
2021/07/31 02:38:14;;;;;;;8.50;5.90;;;;;;;14.51;77.91;99663.72;92920;1211;85673;-63
2021/07/31 02:40:22;;;;;;;9.20;6.50;;;;;;;14.50;77.96;99662.05;92932;1210;73425;-58
2021/07/31 02:42:29;;;;;;;9.10;6.20;;;;;;;14.50;78.13;99656.61;92907;1211;80337;-57
2021/07/31 02:44:38;;;;;;;8.00;6.00;;;;;;;14.49;78.10;99656.86;92937;1210;65370;-57
2021/07/31 02:46:46;;;;;;;8.20;6.10;;;;;;;14.48;78.13;99650.59;92969;1211;68928;-62
2021/07/31 02:48:53;;;;;;;10.50;6.20;;;;;;;14.45;78.22;99651.05;92944;1211;85795;-63
2021/07/31 02:51:06;;;;;;;9.20;6.10;;;;;;;14.45;78.23;99659.20;92922;1209;74594;-57
2021/07/31 02:53:14;;;;;;;7.70;6.10;;;;;;;14.42;78.22;99659.67;92950;1211;80235;-58
2021/07/31 02:55:22;;;;;;;8.90;6.80;;;;;;;14.45;78.11;99656.48;92946;1211;66045;-63
2021/07/31 02:57:30;;;;;;;6.60;5.80;;;;;;;14.48;78.22;99658.75;92975;1211;67574;-62
2021/07/31 02:59:41;;;;;;;10.30;5.80;;;;;;;14.48;78.28;99653.31;92965;1211;85214;-62
2021/07/31 03:01:48;;;;;;;7.00;5.70;;;;;;;14.45;78.29;99653.77;92938;1211;75089;-61
2021/07/31 03:03:57;;;;;;;11.40;5.80;;;;;;;14.46;78.18;99654.61;92936;1217;80102;-59
2021/07/31 03:06:05;;;;;;;9.30;5.80;;;;;;;14.50;78.42;99656.61;92945;1211;67022;-62
2021/07/31 03:08:12;;;;;;;7.40;5.80;;;;;;;14.54;78.35;99665.14;92952;1217;67673;-64
2021/07/31 03:10:20;;;;;;;10.90;5.80;;;;;;;14.54;78.34;99668.70;92946;1211;87080;-63
2021/07/31 03:12:28;;;;;;;9.70;5.70;;;;;;;14.54;78.39;99667.86;92935;1217;74736;-62
2021/07/31 03:14:35;;;;;;;8.60;5.60;;;;;;;14.54;78.49;99663.26;92924;1211;81959;-64
2021/07/31 03:16:43;;;;;;;8.90;6.00;;;;;;;14.58;78.52;99674.50;92936;1211;67866;-59
2021/07/31 03:18:51;;;;;;;10.10;6.20;;;;;;;14.61;78.39;99661.25;92957;1211;69184;-57
2021/07/31 03:20:58;;;;;;;11.50;5.90;;;;;;;14.67;78.42;99663.05;92928;1211;86664;-61
2021/07/31 03:23:06;;;;;;;8.30;5.80;;;;;;;14.69;78.69;99665.55;92950;1206;74530;-63
2021/07/31 03:25:14;;;;;;;8.20;6.20;;;;;;;14.72;78.43;99663.16;92900;1211;80270;-59
2021/07/31 03:27:22;;;;;;;8.70;6.10;;;;;;;14.75;78.54;99662.70;92939;1218;68508;-60
2021/07/31 03:29:29;;;;;;;7.20;5.90;;;;;;;14.82;78.33;99669.92;92926;1216;68348;-59
2021/07/31 03:31:37;;;;;;;9.20;5.50;;;;;;;14.83;78.41;99664.27;92938;1209;86775;-63
2021/07/31 03:33:44;;;;;;;8.60;5.60;;;;;;;14.86;78.44;99661.05;92981;1211;75304;-64
2021/07/31 03:35:53;;;;;;;9.30;5.80;;;;;;;14.92;78.45;99664.73;92902;1211;81875;-64
2021/07/31 03:38:01;;;;;;;6.60;5.90;;;;;;;14.96;78.47;99657.77;92954;1211;67039;-61
2021/07/31 03:40:11;;;;;;;8.60;5.90;;;;;;;15.01;78.57;99664.16;92941;1211;68518;-63
2021/07/31 03:42:19;;;;;;;7.60;6.00;;;;;;;15.07;78.45;99657.78;92950;1211;85497;-64
2021/07/31 03:44:26;;;;;;;9.00;6.60;;;;;;;15.16;78.51;99660.98;92914;1211;74872;-62
2021/07/31 03:46:34;;;;;;;7.50;6.00;;;;;;;15.29;78.57;99666.17;92924;1211;82276;-57
2021/07/31 03:48:41;;;;;;;8.30;6.20;;;;;;;15.41;78.69;99661.52;92976;1204;65301;-59
2021/07/31 03:50:49;;;;;;;8.20;6.10;;;;;;;15.61;78.62;99659.28;92938;1211;68316;-62
2021/07/31 03:52:56;;;;;;;9.10;5.80;;;;;;;16.03;78.52;99650.88;92916;1211;86214;-62
2021/07/31 03:55:06;;;;;;;7.40;5.70;;;;;;;16.73;78.51;99657.64;92943;1217;74821;-63
2021/07/31 03:57:14;;;;;;;7.90;5.70;;;;;;;17.92;77.72;99647.94;92926;1211;80171;-62
2021/07/31 03:59:22;;;;;;;8.60;5.30;;;;;;;18.99;76.78;99641.61;92940;1211;66079;-63
2021/07/31 04:01:30;;;;;;;7.00;4.70;;;;;;;19.92;75.53;99633.41;92937;1211;67493;-59
2021/07/31 04:03:37;;;;;;;9.70;5.60;;;;;;;20.93;74.39;99633.58;92929;1211;86663;-59
2021/07/31 04:05:45;;;;;;;10.00;5.10;;;;;;;21.68;72.77;99640.89;92939;1211;75466;-62
2021/07/31 04:07:52;;;;;;;5.50;4.60;;;;;;;22.27;70.71;99640.94;92945;1211;81838;-62
2021/07/31 04:10:00;;;;;;;5.20;4.70;;;;;;;22.73;69.42;99649.73;92899;1211;67845;-63
2021/07/31 04:12:09;;;;;;;6.60;4.70;;;;;;;23.07;68.63;99640.64;92939;1211;69518;-61
2021/07/31 04:14:17;;;;;;;7.60;4.90;;;;;;;23.62;67.05;99642.03;92957;1211;86064;-62
2021/07/31 04:16:24;;;;;;;7.80;4.90;;;;;;;24.18;65.89;99633.89;92923;1211;74603;-63
2021/07/31 04:18:32;;;;;;;7.60;5.30;;;;;;;24.52;64.58;99637.27;92946;1211;80139;-62
2021/07/31 04:20:40;;;;;;;15.10;10.50;;;;;;;24.34;62.95;99629.79;92911;1211;65759;-59
2021/07/31 04:22:47;;;;;;;11.60;6.90;;;;;;;23.58;62.92;99630.76;92921;1211;68563;-59
2021/07/31 04:24:56;;;;;;;9.10;6.90;;;;;;;22.84;62.75;99623.75;92961;1211;86595;-62
2021/07/31 04:27:05;;;;;;;9.50;5.70;;;;;;;22.16;63.10;99625.59;92901;1211;74710;-62
2021/07/31 04:29:12;;;;;;;10.20;5.30;;;;;;;21.52;63.68;99633.80;92923;1211;81323;-63
2021/07/31 04:31:20;;;;;;;8.90;5.20;;;;;;;21.05;64.35;99638.80;92897;1211;66219;-60
2021/07/31 04:33:28;;;;;;;7.90;4.70;;;;;;;20.61;65.16;99635.78;92962;1211;69117;-60
2021/07/31 04:35:35;;;;;;;7.20;4.50;;;;;;;20.37;65.50;99640.14;92926;1211;86923;-61
2021/07/31 04:37:43;;;;;;;8.90;4.80;;;;;;;20.12;65.85;99642.78;92926;1211;75263;-63
2021/07/31 04:39:50;;;;;;;7.80;4.20;;;;;;;19.96;66.25;99639.19;92910;1211;81780;-59
2021/07/31 04:41:58;;;;;;;7.00;4.30;;;;;;;19.84;66.92;99647.63;92929;1211;65912;-58
2021/07/31 04:44:07;;;;;;;8.10;4.60;;;;;;;19.82;67.17;99646.25;92942;1211;67851;-58
2021/07/31 04:46:14;;;;;;;7.80;5.00;;;;;;;20.00;68.18;99646.59;92943;1216;85275;-61
2021/07/31 04:48:22;;;;;;;7.50;4.70;;;;;;;21.22;67.79;99644.03;92941;1211;74084;-62
2021/07/31 04:50:30;;;;;;;9.80;4.80;;;;;;;21.95;66.76;99645.23;92925;1218;81738;-59
2021/07/31 04:52:38;;;;;;;7.20;4.50;;;;;;;23.00;65.71;99629.11;92915;1211;66835;-58
2021/07/31 04:54:48;;;;;;;6.10;3.90;;;;;;;24.49;64.77;99630.41;92960;1210;68748;-62
2021/07/31 04:56:56;;;;;;;7.60;4.50;;;;;;;25.88;62.99;99637.63;92921;1211;87431;-63
2021/07/31 04:59:03;;;;;;;5.70;4.50;;;;;;;26.80;60.63;99618.70;92929;1211;75313;-63
2021/07/31 05:01:11;;;;;;;4.90;3.90;;;;;;;27.53;59.49;99632.04;92909;1211;80339;-60
2021/07/31 05:03:19;;;;;;;8.30;4.50;;;;;;;28.28;57.35;99635.72;92940;1211;67200;-58
2021/07/31 05:05:27;;;;;;;6.00;4.40;;;;;;;28.99;54.94;99623.98;92929;1211;69090;-63
2021/07/31 05:07:38;;;;;;;4.90;4.40;;;;;;;29.64;53.37;99642.34;92925;1218;86774;-62
2021/07/31 05:09:45;;;;;;;4.70;4.20;;;;;;;30.40;52.24;99643.12;92912;1218;75391;-62
2021/07/31 05:11:52;;;;;;;4.60;4.00;;;;;;;31.01;50.88;99637.88;92925;1211;81578;-63
2021/07/31 05:14:01;;;;;;;5.60;3.90;;;;;;;31.57;49.60;99625.13;92925;1212;65698;-63
2021/07/31 05:16:14;;;;;;;6.10;4.00;;;;;;;32.15;47.44;99632.27;92937;1211;67929;-63
2021/07/31 05:18:21;;;;;;;8.30;4.00;;;;;;;32.44;46.82;99627.20;92932;1211;86316;-63
2021/07/31 05:20:29;;;;;;;5.80;4.00;;;;;;;33.09;45.71;99631.59;92937;1211;74899;-63
2021/07/31 05:22:36;;;;;;;4.10;3.50;;;;;;;33.25;44.02;99638.03;92906;1211;81259;-62
2021/07/31 05:24:44;;;;;;;6.00;3.80;;;;;;;33.53;43.67;99632.38;92917;1211;66936;-61
2021/07/31 05:26:51;;;;;;;4.30;3.70;;;;;;;33.91;43.89;99631.77;92938;1206;69362;-62
2021/07/31 05:28:59;;;;;;;6.00;4.10;;;;;;;34.30;42.88;99644.77;92907;1211;85891;-60
2021/07/31 05:31:06;;;;;;;5.80;3.70;;;;;;;34.59;41.41;99636.99;92945;1211;75357;-68
2021/07/31 05:33:14;;;;;;;4.00;3.40;;;;;;;34.66;39.79;99637.98;92938;1211;81077;-63
2021/07/31 05:35:22;;;;;;;4.60;3.20;;;;;;;34.60;38.36;99635.83;92920;1211;67010;-62
2021/07/31 05:37:31;;;;;;;4.40;3.60;;;;;;;34.60;38.82;99635.83;92942;1211;68140;-60
2021/07/31 05:39:39;;;;;;;7.50;4.00;;;;;;;34.18;38.06;99636.45;92938;1211;87654;-59
2021/07/31 05:41:46;;;;;;;6.60;3.70;;;;;;;33.94;38.13;99635.83;92966;1211;74398;-60
2021/07/31 05:43:54;;;;;;;5.40;3.60;;;;;;;34.14;39.04;99634.75;92909;1209;82021;-61
2021/07/31 05:46:04;;;;;;;4.30;3.00;;;;;;;34.92;38.74;99626.89;92917;1211;65453;-60
2021/07/31 05:48:14;;;;;;;8.20;4.70;;;;;;;35.44;37.80;99614.26;92925;1211;69280;-61
2021/07/31 05:50:21;;;;;;;5.10;3.10;;;;;;;35.62;36.51;99621.05;92928;1211;85281;-60
2021/07/31 05:52:29;;;;;;;5.10;3.50;;;;;;;36.09;34.75;99618.66;92898;1211;74294;-61
2021/07/31 05:54:38;;;;;;;6.50;3.60;;;;;;;36.56;33.11;99620.95;92929;1211;81232;-64
2021/07/31 05:56:49;;;;;;;5.30;3.30;;;;;;;36.92;32.96;99621.42;92924;1210;66434;-60
2021/07/31 05:58:57;;;;;;;5.50;3.10;;;;;;;37.05;31.74;99620.81;92964;1211;69336;-61
2021/07/31 06:01:06;;;;;;;6.30;3.20;;;;;;;37.29;31.96;99619.45;92907;1211;86427;-61
2021/07/31 06:03:14;;;;;;;9.00;3.70;;;;;;;37.62;30.60;99615.77;92937;1216;73496;-60
2021/07/31 06:05:21;;;;;;;4.70;3.40;;;;;;;37.78;30.86;99616.30;92891;1204;80906;-59
2021/07/31 06:07:29;;;;;;;4.90;3.00;;;;;;;37.98;30.99;99617.71;92927;1211;65767;-59
2021/07/31 06:09:47;;;;;;;5.30;3.30;;;;;;;37.29;29.12;99613.81;92954;1211;68595;-60
2021/07/31 06:11:54;;;;;;;4.00;3.20;;;;;;;37.40;31.08;99614.73;92914;1211;87203;-64
2021/07/31 06:14:02;;;;;;;4.30;3.40;;;;;;;37.81;30.46;99615.53;92938;1211;75422;-65
2021/07/31 06:16:12;;;;;;;5.80;3.20;;;;;;;38.24;29.79;99611.02;92877;1211;81644;-59
2021/07/31 06:18:20;;;;;;;5.90;2.80;;;;;;;38.02;30.10;99612.89;92941;1216;66972;-61
2021/07/31 06:20:30;;;;;;;2.80;2.50;;;;;;;38.18;30.49;99615.44;92919;1211;68834;-60
2021/07/31 06:22:38;;;;;;;3.90;2.80;;;;;;;38.51;29.03;99617.27;92929;1211;88304;-59
2021/07/31 06:24:45;;;;;;;5.80;3.00;;;;;;;38.64;28.90;99610.07;92932;1211;75047;-63
2021/07/31 06:26:54;;;;;;;5.50;2.80;;;;;;;38.77;27.81;99614.19;92892;1211;80814;-62
2021/07/31 06:29:01;;;;;;;5.20;2.30;;;;;;;38.60;27.82;99610.05;92922;1211;65475;-64
2021/07/31 06:31:10;;;;;;;4.40;2.50;;;;;;;37.92;27.59;99601.53;92957;1210;68146;-63
2021/07/31 06:33:21;;;;;;;6.20;2.50;;;;;;;37.48;27.75;99607.98;92964;1209;85858;-63
2021/07/31 06:35:28;;;;;;;4.80;2.60;;;;;;;36.72;28.04;99609.51;92942;1211;75497;-63
2021/07/31 06:37:36;;;;;;;4.00;2.30;;;;;;;35.58;28.92;99608.92;92961;1211;81504;-63
2021/07/31 06:39:43;;;;;;;6.60;3.10;;;;;;;34.55;29.84;99608.84;92906;1211;65678;-60
2021/07/31 06:41:51;;;;;;;4.60;2.40;;;;;;;33.81;30.90;99602.31;92949;1211;69113;-59
2021/07/31 06:44:01;;;;;;;4.40;2.50;;;;;;;33.12;31.45;99596.46;92941;1211;87156;-58
2021/07/31 06:46:15;;;;;;;6.60;2.50;;;;;;;32.21;32.61;99597.32;92926;1211;74931;-63
2021/07/31 06:48:25;;;;;;;5.10;2.40;;;;;;;31.65;32.97;99604.64;92955;1211;80485;-63
2021/07/31 06:50:33;;;;;;;6.40;2.60;;;;;;;31.25;33.78;99599.70;92924;1211;65525;-58
2021/07/31 06:52:40;;;;;;;5.20;2.50;;;;;;;30.98;34.33;99610.66;92925;1211;68366;-59
2021/07/31 06:54:48;;;;;;;3.80;2.50;;;;;;;31.52;34.69;99604.66;92930;1211;86237;-63
2021/07/31 06:56:56;;;;;;;4.70;2.60;;;;;;;31.76;34.50;99615.02;92932;1204;75058;-62
2021/07/31 06:59:04;;;;;;;5.00;2.30;;;;;;;31.58;34.05;99622.00;92911;1211;80847;-63
2021/07/31 07:01:14;;;;;;;5.00;2.60;;;;;;;31.35;34.67;99620.75;92914;1211;67527;-62
2021/07/31 07:03:22;;;;;;;6.90;2.00;;;;;;;31.39;34.20;99622.52;92948;1211;68553;-62
2021/07/31 07:05:30;;;;;;;5.90;2.20;;;;;;;31.47;34.23;99623.61;92928;1211;86636;-58
2021/07/31 07:07:38;;;;;;;4.10;2.30;;;;;;;31.75;34.58;99618.99;92944;1211;73794;-60
2021/07/31 07:09:45;;;;;;;5.00;2.20;;;;;;;32.67;34.21;99627.52;92924;1211;81671;-60
2021/07/31 07:11:53;;;;;;;5.10;2.30;;;;;;;33.28;33.47;99622.50;92921;1211;65532;-58
2021/07/31 07:14:00;;;;;;;4.60;2.30;;;;;;;33.52;33.07;99630.73;92923;1218;69357;-60
2021/07/31 07:16:09;;;;;;;5.40;2.60;;;;;;;33.56;32.94;99620.45;92890;1211;87194;-58
2021/07/31 07:18:16;;;;;;;3.80;2.10;;;;;;;33.79;32.35;99623.44;92935;1211;75253;-58
2021/07/31 07:20:25;;;;;;;3.10;2.20;;;;;;;34.18;32.10;99613.20;92930;1211;80363;-63
2021/07/31 07:22:32;;;;;;;6.30;2.60;;;;;;;34.68;32.73;99610.36;92906;1211;65572;-63
2021/07/31 07:24:43;;;;;;;6.90;2.70;;;;;;;35.47;31.67;99600.28;92944;1216;68553;-62
2021/07/31 07:26:50;;;;;;;5.60;2.20;;;;;;;36.31;30.25;99602.09;92945;1211;87395;-58
2021/07/31 07:28:58;;;;;;;3.90;2.20;;;;;;;37.01;29.99;99603.04;92936;1211;75311;-59
2021/07/31 07:31:06;;;;;;;4.20;2.30;;;;;;;37.47;28.76;99602.75;92925;1211;80667;-59
2021/07/31 07:33:14;;;;;;;4.70;2.50;;;;;;;37.45;28.26;99599.48;92919;1211;65447;-59
2021/07/31 07:35:22;;;;;;;4.80;2.50;;;;;;;37.46;27.76;99606.76;92951;1216;68092;-60
2021/07/31 07:37:30;;;;;;;4.30;2.50;;;;;;;37.08;28.20;99596.69;92976;1212;85000;-59
2021/07/31 07:39:38;;;;;;;7.30;2.40;;;;;;;36.64;28.69;99585.28;92936;1217;74435;-60
2021/07/31 07:41:48;;;;;;;5.90;2.60;;;;;;;36.44;28.58;99589.40;92953;1218;81931;-59
2021/07/31 07:43:56;;;;;;;4.40;2.50;;;;;;;36.44;28.87;99584.58;92931;1211;66683;-58
2021/07/31 07:46:04;;;;;;;4.40;2.60;;;;;;;36.47;29.02;99583.83;92933;1216;69412;-62
2021/07/31 07:48:12;;;;;;;3.40;2.60;;;;;;;36.52;28.70;99582.70;92922;1211;86306;-66
2021/07/31 07:50:19;;;;;;;4.10;2.60;;;;;;;36.26;28.98;99577.89;92924;1211;75601;-64
2021/07/31 07:52:27;;;;;;;6.00;3.10;;;;;;;36.11;29.08;99581.70;92950;1211;83103;-60
2021/07/31 07:54:36;;;;;;;3.90;2.30;;;;;;;36.57;28.55;99583.17;92911;1211;65436;-65
2021/07/31 07:56:44;;;;;;;5.50;2.30;;;;;;;37.32;29.19;99573.59;92966;1211;70424;-58
2021/07/31 07:58:57;;;;;;;3.90;2.40;;;;;;;37.82;28.15;99572.03;92947;1216;85557;-62
2021/07/31 08:01:05;;;;;;;4.40;2.50;;;;;;;37.61;28.38;99575.48;92936;1217;75866;-63
2021/07/31 08:03:12;;;;;;;3.80;2.40;;;;;;;37.84;27.53;99580.91;92913;1211;81279;-63
2021/07/31 08:05:23;;;;;;;4.50;3.00;;;;;;;37.25;26.89;99585.59;92927;1212;66383;-61
2021/07/31 08:07:30;;;;;;;4.70;2.70;;;;;;;36.55;27.62;99582.75;92944;1211;67473;-61
2021/07/31 08:09:39;;;;;;;6.70;2.80;;;;;;;35.66;27.37;99571.32;92942;1211;87230;-62
2021/07/31 08:11:47;;;;;;;6.60;3.00;;;;;;;34.55;29.31;99583.59;92950;1211;74318;-60
2021/07/31 08:13:55;;;;;;;4.00;2.70;;;;;;;34.04;29.64;99577.20;92942;1211;81140;-59
2021/07/31 08:16:03;;;;;;;5.00;2.90;;;;;;;33.68;30.54;99592.36;92930;1204;66033;-62
2021/07/31 08:18:11;;;;;;;3.90;2.50;;;;;;;33.44;30.62;99591.70;92941;1218;68579;-62
2021/07/31 08:20:19;;;;;;;5.10;2.70;;;;;;;32.99;30.96;99595.66;92945;1211;86904;-63
2021/07/31 08:22:27;;;;;;;4.50;2.60;;;;;;;32.64;31.83;99594.66;92957;1211;75132;-63
2021/07/31 08:24:34;;;;;;;4.20;2.60;;;;;;;32.60;32.36;99591.78;92933;1211;80159;-63
2021/07/31 08:26:41;;;;;;;3.70;2.60;;;;;;;32.32;32.47;99590.89;92936;1211;66665;-62
2021/07/31 08:28:50;;;;;;;6.00;3.10;;;;;;;32.40;33.04;99589.12;92976;1210;68456;-62
2021/07/31 08:30:58;;;;;;;4.80;3.00;;;;;;;32.59;33.58;99587.34;92898;1211;86661;-58
2021/07/31 08:33:05;;;;;;;4.80;3.00;;;;;;;32.49;34.31;99587.00;92936;1211;75818;-58
2021/07/31 08:35:14;;;;;;;4.00;3.00;;;;;;;32.50;34.08;99583.84;92919;1217;82931;-67
2021/07/31 08:37:22;;;;;;;4.20;2.80;;;;;;;32.40;34.59;99586.32;92907;1211;66492;-61
2021/07/31 08:39:32;;;;;;;5.30;3.00;;;;;;;32.13;34.64;99587.09;92966;1211;69795;-69
2021/07/31 08:41:40;;;;;;;5.40;2.80;;;;;;;32.01;34.85;99594.32;92912;1211;87161;-62
2021/07/31 08:43:47;;;;;;;5.10;2.90;;;;;;;31.87;34.99;99588.23;92938;1211;75477;-63
2021/07/31 08:45:56;;;;;;;6.40;3.90;;;;;;;31.77;35.27;99588.72;92937;1211;82946;-63
2021/07/31 08:48:05;;;;;;;9.70;3.40;;;;;;;31.67;35.91;99589.20;92946;1211;65854;-62
2021/07/31 08:50:15;;;;;;;7.00;3.20;;;;;;;31.58;35.41;99585.69;92921;1211;67604;-63
2021/07/31 08:52:24;;;;;;;4.40;3.10;;;;;;;31.48;36.05;99588.95;92942;1211;87538;-62
2021/07/31 08:54:32;;;;;;;5.60;3.10;;;;;;;31.33;35.88;99584.00;92968;1211;74910;-64
2021/07/31 08:56:43;;;;;;;4.30;3.10;;;;;;;31.46;36.18;99589.28;92956;1211;80991;-62
2021/07/31 08:58:50;;;;;;;5.50;3.00;;;;;;;31.53;36.51;99577.55;92951;1211;65611;-62
2021/07/31 09:00:59;;;;;;;5.90;3.80;;;;;;;31.35;36.15;99581.67;92945;1211;70152;-65
2021/07/31 09:03:08;;;;;;;7.80;3.10;;;;;;;31.47;35.77;99584.52;92918;1211;85860;-62
2021/07/31 09:05:30;;;;;;;4.70;3.10;;;;;;;31.38;36.02;99578.19;92920;1211;74587;-64
2021/07/31 09:07:38;;;;;;;7.80;3.60;;;;;;;31.47;36.01;99578.94;92950;1211;81973;-63
2021/07/31 09:09:47;;;;;;;4.80;3.60;;;;;;;31.25;35.70;99570.96;92930;1212;66388;-61
2021/07/31 09:12:01;;;;;;;5.40;3.40;;;;;;;31.04;37.21;99571.02;92980;1205;67747;-62
2021/07/31 09:14:14;;;;;;;4.80;3.60;;;;;;;30.96;37.15;99571.92;92967;1211;85760;-62
2021/07/31 09:16:33;;;;;;;5.50;3.10;;;;;;;30.76;37.23;99565.23;92944;1211;73666;-63
2021/07/31 09:18:44;;;;;;;5.60;3.10;;;;;;;30.67;37.87;99574.83;92917;1211;82346;-67
2021/07/31 09:21:04;;;;;;;7.30;3.90;;;;;;;30.71;37.77;99561.84;92921;1209;65796;-65
2021/07/31 09:23:11;;;;;;;4.60;3.30;;;;;;;30.69;37.95;99559.38;92949;1211;68411;-62
2021/07/31 09:25:22;;;;;;;4.60;3.60;;;;;;;30.79;37.85;99555.36;92918;1218;86383;-63
2021/07/31 09:27:29;;;;;;;5.30;3.20;;;;;;;31.00;37.41;99558.11;92956;1211;75385;-62
2021/07/31 09:29:42;;;;;;;6.60;3.90;;;;;;;31.13;38.08;99552.21;92941;1211;81481;-62
2021/07/31 09:31:56;;;;;;;6.30;3.20;;;;;;;31.29;37.60;99555.13;92902;1211;66346;-62
2021/07/31 09:34:04;;;;;;;5.20;3.50;;;;;;;31.40;38.14;99554.34;92956;1211;69399;-62
2021/07/31 09:36:15;;;;;;;5.50;3.90;;;;;;;31.58;37.88;99552.18;92933;1211;85662;-62
2021/07/31 09:38:34;;;;;;;5.30;3.50;;;;;;;31.57;37.02;99544.95;92935;1211;74763;-62
2021/07/31 09:40:42;;;;;;;5.20;3.40;;;;;;;31.56;37.84;99548.11;92946;1211;81954;-63
2021/07/31 09:42:50;;;;;;;7.30;3.70;;;;;;;31.52;36.97;99545.19;92934;1211;65754;-67
2021/07/31 09:45:02;;;;;;;4.60;3.10;;;;;;;31.21;37.89;99553.27;92942;1218;69632;-63
2021/07/31 09:47:14;;;;;;;5.30;3.60;;;;;;;31.09;37.09;99550.47;92941;1211;86578;-62
2021/07/31 09:49:23;;;;;;;6.80;3.50;;;;;;;30.85;37.31;99545.59;92948;1211;75109;-61
2021/07/31 09:51:37;;;;;;;6.00;3.70;;;;;;;30.79;38.13;99547.78;92934;1217;82033;-63
2021/07/31 09:53:45;;;;;;;5.70;3.70;;;;;;;30.62;38.58;99545.19;92973;1217;65473;-62
2021/07/31 09:55:55;;;;;;;4.00;3.10;;;;;;;30.66;38.78;99540.54;92943;1211;67645;-60
2021/07/31 09:58:05;;;;;;;6.00;3.90;;;;;;;30.67;37.45;99539.39;92963;1211;86092;-64
2021/07/31 10:00:16;;;;;;;6.80;3.70;;;;;;;30.75;38.40;99534.88;92939;1211;75083;-63
2021/07/31 10:02:26;;;;;;;6.20;3.50;;;;;;;30.88;39.37;99540.15;92937;1211;80044;-63
2021/07/31 10:04:36;;;;;;;5.80;3.60;;;;;;;30.92;38.45;99537.52;92953;1211;66910;-62